sensor_id;sensor_type;location;lat;lon;timestamp;P1;durP1;ratioP1;P2;durP2;ratioP2
29246;SDS011;16272;48.188;9.964;2023-12-14T00:00:25;5.40;;;1.40;;
29246;SDS011;16272;48.188;9.964;2023-12-14T00:02:51;5.35;;;1.25;;
29246;SDS011;16272;48.188;9.964;2023-12-14T00:05:16;4.60;;;1.00;;
29246;SDS011;16272;48.188;9.964;2023-12-14T00:07:42;4.73;;;0.90;;
29246;SDS011;16272;48.188;9.964;2023-12-14T00:10:07;3.67;;;0.80;;
29246;SDS011;16272;48.188;9.964;2023-12-14T00:12:33;3.20;;;0.60;;
29246;SDS011;16272;48.188;9.964;2023-12-14T00:14:58;3.67;;;0.60;;
29246;SDS011;16272;48.188;9.964;2023-12-14T00:17:23;2.93;;;0.73;;
29246;SDS011;16272;48.188;9.964;2023-12-14T00:19:49;2.87;;;0.50;;
29246;SDS011;16272;48.188;9.964;2023-12-14T00:22:14;2.23;;;0.50;;
29246;SDS011;16272;48.188;9.964;2023-12-14T00:24:39;3.07;;;0.50;;
29246;SDS011;16272;48.188;9.964;2023-12-14T00:27:05;2.70;;;0.50;;
29246;SDS011;16272;48.188;9.964;2023-12-14T00:29:30;2.80;;;0.60;;
29246;SDS011;16272;48.188;9.964;2023-12-14T00:31:55;2.20;;;0.50;;
29246;SDS011;16272;48.188;9.964;2023-12-14T00:34:20;9.40;;;3.87;;
29246;SDS011;16272;48.188;9.964;2023-12-14T00:36:46;3.30;;;0.53;;
29246;SDS011;16272;48.188;9.964;2023-12-14T00:39:11;2.42;;;0.50;;
29246;SDS011;16272;48.188;9.964;2023-12-14T00:41:36;2.13;;;0.50;;
29246;SDS011;16272;48.188;9.964;2023-12-14T00:44:02;2.40;;;0.53;;
29246;SDS011;16272;48.188;9.964;2023-12-14T00:46:27;2.97;;;0.60;;
29246;SDS011;16272;48.188;9.964;2023-12-14T00:48:52;3.10;;;0.50;;
29246;SDS011;16272;48.188;9.964;2023-12-14T00:51:18;2.80;;;0.60;;
29246;SDS011;16272;48.188;9.964;2023-12-14T00:53:43;3.70;;;0.70;;
29246;SDS011;16272;48.188;9.964;2023-12-14T00:56:08;3.10;;;0.60;;
29246;SDS011;16272;48.188;9.964;2023-12-14T00:58:34;3.10;;;0.50;;
29246;SDS011;16272;48.188;9.964;2023-12-14T01:00:59;3.07;;;0.60;;
29246;SDS011;16272;48.188;9.964;2023-12-14T01:03:25;3.03;;;0.60;;
29246;SDS011;16272;48.188;9.964;2023-12-14T01:05:50;3.03;;;0.57;;
29246;SDS011;16272;48.188;9.964;2023-12-14T01:08:15;2.97;;;0.50;;
29246;SDS011;16272;48.188;9.964;2023-12-14T01:10:40;2.03;;;0.50;;
29246;SDS011;16272;48.188;9.964;2023-12-14T01:13:06;2.87;;;0.50;;
29246;SDS011;16272;48.188;9.964;2023-12-14T01:15:31;3.20;;;0.60;;
29246;SDS011;16272;48.188;9.964;2023-12-14T01:17:56;2.80;;;0.50;;
29246;SDS011;16272;48.188;9.964;2023-12-14T01:20:22;2.40;;;0.50;;
29246;SDS011;16272;48.188;9.964;2023-12-14T01:22:48;2.70;;;0.60;;
29246;SDS011;16272;48.188;9.964;2023-12-14T01:25:13;2.87;;;0.60;;
29246;SDS011;16272;48.188;9.964;2023-12-14T01:27:39;3.20;;;0.50;;
29246;SDS011;16272;48.188;9.964;2023-12-14T01:30:04;2.80;;;0.57;;
29246;SDS011;16272;48.188;9.964;2023-12-14T01:32:30;2.23;;;0.50;;
29246;SDS011;16272;48.188;9.964;2023-12-14T01:34:55;3.03;;;0.50;;
29246;SDS011;16272;48.188;9.964;2023-12-14T01:37:20;2.97;;;0.60;;
29246;SDS011;16272;48.188;9.964;2023-12-14T01:39:45;3.50;;;0.60;;
29246;SDS011;16272;48.188;9.964;2023-12-14T01:42:11;3.30;;;0.60;;
29246;SDS011;16272;48.188;9.964;2023-12-14T01:44:36;2.87;;;0.60;;
29246;SDS011;16272;48.188;9.964;2023-12-14T01:47:01;3.70;;;0.80;;
29246;SDS011;16272;48.188;9.964;2023-12-14T01:49:27;3.53;;;0.60;;
29246;SDS011;16272;48.188;9.964;2023-12-14T01:51:52;3.90;;;0.70;;
29246;SDS011;16272;48.188;9.964;2023-12-14T01:54:17;4.30;;;0.83;;
29246;SDS011;16272;48.188;9.964;2023-12-14T01:56:42;4.90;;;0.83;;
29246;SDS011;16272;48.188;9.964;2023-12-14T01:59:08;3.97;;;0.90;;
29246;SDS011;16272;48.188;9.964;2023-12-14T02:01:37;3.87;;;0.73;;
29246;SDS011;16272;48.188;9.964;2023-12-14T02:04:06;4.43;;;0.80;;
29246;SDS011;16272;48.188;9.964;2023-12-14T02:06:32;3.67;;;0.75;;
29246;SDS011;16272;48.188;9.964;2023-12-14T02:08:57;3.10;;;0.60;;
29246;SDS011;16272;48.188;9.964;2023-12-14T02:11:22;4.40;;;0.60;;
29246;SDS011;16272;48.188;9.964;2023-12-14T02:13:48;4.07;;;0.70;;
29246;SDS011;16272;48.188;9.964;2023-12-14T02:16:13;14.73;;;1.00;;
29246;SDS011;16272;48.188;9.964;2023-12-14T02:18:38;5.07;;;0.53;;
29246;SDS011;16272;48.188;9.964;2023-12-14T02:21:04;3.83;;;0.70;;
29246;SDS011;16272;48.188;9.964;2023-12-14T02:23:29;3.40;;;0.60;;
29246;SDS011;16272;48.188;9.964;2023-12-14T02:25:55;3.37;;;0.60;;
29246;SDS011;16272;48.188;9.964;2023-12-14T02:28:20;4.00;;;0.75;;
29246;SDS011;16272;48.188;9.964;2023-12-14T02:30:45;4.43;;;0.90;;
29246;SDS011;16272;48.188;9.964;2023-12-14T02:33:11;4.10;;;0.90;;
29246;SDS011;16272;48.188;9.964;2023-12-14T02:35:36;5.03;;;1.03;;
29246;SDS011;16272;48.188;9.964;2023-12-14T02:38:01;4.80;;;0.90;;
29246;SDS011;16272;48.188;9.964;2023-12-14T02:40:26;4.60;;;0.90;;
29246;SDS011;16272;48.188;9.964;2023-12-14T02:42:52;4.80;;;1.10;;
29246;SDS011;16272;48.188;9.964;2023-12-14T02:45:17;5.43;;;0.90;;
29246;SDS011;16272;48.188;9.964;2023-12-14T02:47:42;4.40;;;1.00;;
29246;SDS011;16272;48.188;9.964;2023-12-14T02:50:08;3.90;;;0.80;;
29246;SDS011;16272;48.188;9.964;2023-12-14T02:52:34;4.28;;;0.80;;
29246;SDS011;16272;48.188;9.964;2023-12-14T02:54:59;4.27;;;0.90;;
29246;SDS011;16272;48.188;9.964;2023-12-14T02:57:24;4.47;;;0.80;;
29246;SDS011;16272;48.188;9.964;2023-12-14T02:59:50;4.50;;;0.90;;
29246;SDS011;16272;48.188;9.964;2023-12-14T03:02:15;4.40;;;1.00;;
29246;SDS011;16272;48.188;9.964;2023-12-14T03:04:41;4.63;;;1.10;;
29246;SDS011;16272;48.188;9.964;2023-12-14T03:07:06;5.10;;;1.10;;
29246;SDS011;16272;48.188;9.964;2023-12-14T03:09:32;8.05;;;2.03;;
29246;SDS011;16272;48.188;9.964;2023-12-14T03:11:58;6.70;;;1.87;;
29246;SDS011;16272;48.188;9.964;2023-12-14T03:14:24;6.57;;;1.80;;
29246;SDS011;16272;48.188;9.964;2023-12-14T03:16:49;7.17;;;2.03;;
29246;SDS011;16272;48.188;9.964;2023-12-14T03:19:15;9.82;;;3.58;;
29246;SDS011;16272;48.188;9.964;2023-12-14T03:21:41;10.97;;;3.60;;
29246;SDS011;16272;48.188;9.964;2023-12-14T03:24:07;10.60;;;3.60;;
29246;SDS011;16272;48.188;9.964;2023-12-14T03:26:34;11.35;;;3.80;;
29246;SDS011;16272;48.188;9.964;2023-12-14T03:28:59;9.70;;;3.83;;
29246;SDS011;16272;48.188;9.964;2023-12-14T03:31:25;10.37;;;3.83;;
29246;SDS011;16272;48.188;9.964;2023-12-14T03:33:50;10.63;;;3.70;;
29246;SDS011;16272;48.188;9.964;2023-12-14T03:36:15;10.93;;;4.00;;
29246;SDS011;16272;48.188;9.964;2023-12-14T03:38:40;11.37;;;4.27;;
29246;SDS011;16272;48.188;9.964;2023-12-14T03:41:06;12.23;;;4.40;;
29246;SDS011;16272;48.188;9.964;2023-12-14T03:43:31;12.37;;;4.27;;
29246;SDS011;16272;48.188;9.964;2023-12-14T03:45:56;11.20;;;4.33;;
29246;SDS011;16272;48.188;9.964;2023-12-14T03:48:21;11.43;;;4.20;;
29246;SDS011;16272;48.188;9.964;2023-12-14T03:50:47;12.07;;;4.10;;
29246;SDS011;16272;48.188;9.964;2023-12-14T03:53:12;11.00;;;4.03;;
29246;SDS011;16272;48.188;9.964;2023-12-14T03:55:37;11.13;;;4.13;;
29246;SDS011;16272;48.188;9.964;2023-12-14T03:58:02;11.03;;;4.20;;
29246;SDS011;16272;48.188;9.964;2023-12-14T04:00:28;11.93;;;4.30;;
29246;SDS011;16272;48.188;9.964;2023-12-14T04:02:53;10.73;;;3.80;;
29246;SDS011;16272;48.188;9.964;2023-12-14T04:05:18;9.90;;;3.70;;
29246;SDS011;16272;48.188;9.964;2023-12-14T04:07:43;10.97;;;4.20;;
29246;SDS011;16272;48.188;9.964;2023-12-14T04:10:09;11.20;;;4.50;;
29246;SDS011;16272;48.188;9.964;2023-12-14T04:12:36;11.68;;;4.68;;
29246;SDS011;16272;48.188;9.964;2023-12-14T04:15:02;11.93;;;4.50;;
29246;SDS011;16272;48.188;9.964;2023-12-14T04:17:28;12.48;;;5.20;;
29246;SDS011;16272;48.188;9.964;2023-12-14T04:19:53;12.20;;;4.73;;
29246;SDS011;16272;48.188;9.964;2023-12-14T04:22:19;13.10;;;5.03;;
29246;SDS011;16272;48.188;9.964;2023-12-14T04:24:44;13.47;;;5.00;;
29246;SDS011;16272;48.188;9.964;2023-12-14T04:27:09;12.97;;;4.90;;
29246;SDS011;16272;48.188;9.964;2023-12-14T04:29:35;14.18;;;5.10;;
29246;SDS011;16272;48.188;9.964;2023-12-14T04:32:00;12.87;;;4.83;;
29246;SDS011;16272;48.188;9.964;2023-12-14T04:34:25;12.60;;;4.77;;
29246;SDS011;16272;48.188;9.964;2023-12-14T04:36:50;12.37;;;4.60;;
29246;SDS011;16272;48.188;9.964;2023-12-14T04:39:17;12.50;;;4.90;;
29246;SDS011;16272;48.188;9.964;2023-12-14T04:41:43;12.32;;;4.88;;
29246;SDS011;16272;48.188;9.964;2023-12-14T04:44:08;11.70;;;4.83;;
29246;SDS011;16272;48.188;9.964;2023-12-14T04:46:35;11.57;;;4.43;;
29246;SDS011;16272;48.188;9.964;2023-12-14T04:49:00;12.40;;;4.65;;
29246;SDS011;16272;48.188;9.964;2023-12-14T04:51:26;12.37;;;4.60;;
29246;SDS011;16272;48.188;9.964;2023-12-14T04:53:51;11.63;;;4.43;;
29246;SDS011;16272;48.188;9.964;2023-12-14T04:56:16;12.27;;;4.80;;
29246;SDS011;16272;48.188;9.964;2023-12-14T04:58:41;10.43;;;4.27;;
29246;SDS011;16272;48.188;9.964;2023-12-14T05:01:07;11.20;;;4.50;;
29246;SDS011;16272;48.188;9.964;2023-12-14T05:03:33;10.88;;;4.53;;
29246;SDS011;16272;48.188;9.964;2023-12-14T05:05:59;13.63;;;4.60;;
29246;SDS011;16272;48.188;9.964;2023-12-14T05:08:25;10.32;;;4.30;;
29246;SDS011;16272;48.188;9.964;2023-12-14T05:10:50;11.67;;;4.80;;
29246;SDS011;16272;48.188;9.964;2023-12-14T05:13:15;11.67;;;4.77;;
29246;SDS011;16272;48.188;9.964;2023-12-14T05:15:41;11.80;;;4.80;;
29246;SDS011;16272;48.188;9.964;2023-12-14T05:18:06;11.80;;;4.60;;
29246;SDS011;16272;48.188;9.964;2023-12-14T05:20:31;11.70;;;4.50;;
29246;SDS011;16272;48.188;9.964;2023-12-14T05:22:57;10.87;;;4.47;;
29246;SDS011;16272;48.188;9.964;2023-12-14T05:25:22;10.85;;;4.30;;
29246;SDS011;16272;48.188;9.964;2023-12-14T05:27:48;11.33;;;4.20;;
29246;SDS011;16272;48.188;9.964;2023-12-14T05:30:13;11.53;;;4.70;;
29246;SDS011;16272;48.188;9.964;2023-12-14T05:32:38;11.50;;;4.63;;
29246;SDS011;16272;48.188;9.964;2023-12-14T05:35:04;10.68;;;4.45;;
29246;SDS011;16272;48.188;9.964;2023-12-14T05:37:30;11.37;;;4.47;;
29246;SDS011;16272;48.188;9.964;2023-12-14T05:39:55;11.17;;;4.70;;
29246;SDS011;16272;48.188;9.964;2023-12-14T05:42:20;11.17;;;4.63;;
29246;SDS011;16272;48.188;9.964;2023-12-14T05:44:46;11.23;;;4.68;;
29246;SDS011;16272;48.188;9.964;2023-12-14T05:47:11;11.17;;;4.47;;
29246;SDS011;16272;48.188;9.964;2023-12-14T05:49:40;11.30;;;4.50;;
29246;SDS011;16272;48.188;9.964;2023-12-14T05:52:07;10.67;;;4.63;;
29246;SDS011;16272;48.188;9.964;2023-12-14T05:54:32;11.60;;;4.87;;
29246;SDS011;16272;48.188;9.964;2023-12-14T05:56:57;11.85;;;4.90;;
29246;SDS011;16272;48.188;9.964;2023-12-14T05:59:23;11.13;;;4.57;;
29246;SDS011;16272;48.188;9.964;2023-12-14T06:01:48;11.30;;;4.80;;
29246;SDS011;16272;48.188;9.964;2023-12-14T06:04:13;11.50;;;4.87;;
29246;SDS011;16272;48.188;9.964;2023-12-14T06:06:39;12.53;;;4.70;;
29246;SDS011;16272;48.188;9.964;2023-12-14T06:09:04;11.52;;;4.70;;
29246;SDS011;16272;48.188;9.964;2023-12-14T06:11:32;11.40;;;4.53;;
29246;SDS011;16272;48.188;9.964;2023-12-14T06:13:57;12.47;;;4.73;;
29246;SDS011;16272;48.188;9.964;2023-12-14T06:16:24;11.18;;;4.50;;
29246;SDS011;16272;48.188;9.964;2023-12-14T06:18:50;12.20;;;4.50;;
29246;SDS011;16272;48.188;9.964;2023-12-14T06:21:15;11.67;;;4.70;;
29246;SDS011;16272;48.188;9.964;2023-12-14T06:23:40;10.83;;;4.40;;
29246;SDS011;16272;48.188;9.964;2023-12-14T06:26:06;11.10;;;4.40;;
29246;SDS011;16272;48.188;9.964;2023-12-14T06:28:31;12.43;;;4.53;;
29246;SDS011;16272;48.188;9.964;2023-12-14T06:30:56;11.60;;;4.60;;
29246;SDS011;16272;48.188;9.964;2023-12-14T06:33:22;11.20;;;4.60;;
29246;SDS011;16272;48.188;9.964;2023-12-14T06:35:47;11.50;;;4.57;;
29246;SDS011;16272;48.188;9.964;2023-12-14T06:38:13;11.30;;;4.33;;
29246;SDS011;16272;48.188;9.964;2023-12-14T06:40:38;11.32;;;4.53;;
29246;SDS011;16272;48.188;9.964;2023-12-14T06:43:04;12.40;;;4.77;;
29246;SDS011;16272;48.188;9.964;2023-12-14T06:45:30;12.68;;;4.93;;
29246;SDS011;16272;48.188;9.964;2023-12-14T06:47:55;12.80;;;4.87;;
29246;SDS011;16272;48.188;9.964;2023-12-14T06:50:21;11.60;;;4.80;;
29246;SDS011;16272;48.188;9.964;2023-12-14T06:52:46;12.87;;;5.40;;
29246;SDS011;16272;48.188;9.964;2023-12-14T06:55:11;12.97;;;5.13;;
29246;SDS011;16272;48.188;9.964;2023-12-14T06:57:39;12.73;;;5.03;;
29246;SDS011;16272;48.188;9.964;2023-12-14T07:00:05;13.90;;;5.67;;
29246;SDS011;16272;48.188;9.964;2023-12-14T07:02:30;14.50;;;5.57;;
29246;SDS011;16272;48.188;9.964;2023-12-14T07:04:56;13.55;;;5.00;;
29246;SDS011;16272;48.188;9.964;2023-12-14T07:07:21;15.17;;;5.70;;
29246;SDS011;16272;48.188;9.964;2023-12-14T07:09:46;16.47;;;6.00;;
29246;SDS011;16272;48.188;9.964;2023-12-14T07:12:12;14.20;;;5.60;;
29246;SDS011;16272;48.188;9.964;2023-12-14T07:14:38;15.45;;;5.80;;
29246;SDS011;16272;48.188;9.964;2023-12-14T07:17:03;14.43;;;5.63;;
29246;SDS011;16272;48.188;9.964;2023-12-14T07:19:30;13.83;;;5.53;;
29246;SDS011;16272;48.188;9.964;2023-12-14T07:21:55;15.68;;;5.63;;
29246;SDS011;16272;48.188;9.964;2023-12-14T07:24:20;15.07;;;6.00;;
29246;SDS011;16272;48.188;9.964;2023-12-14T07:26:46;13.67;;;5.30;;
29246;SDS011;16272;48.188;9.964;2023-12-14T07:29:11;13.97;;;5.60;;
29246;SDS011;16272;48.188;9.964;2023-12-14T07:31:36;15.07;;;5.70;;
29246;SDS011;16272;48.188;9.964;2023-12-14T07:34:02;14.20;;;5.53;;
29246;SDS011;16272;48.188;9.964;2023-12-14T07:36:27;16.23;;;6.20;;
29246;SDS011;16272;48.188;9.964;2023-12-14T07:38:53;14.00;;;5.40;;
29246;SDS011;16272;48.188;9.964;2023-12-14T07:41:19;15.70;;;5.65;;
29246;SDS011;16272;48.188;9.964;2023-12-14T07:43:44;13.80;;;5.63;;
29246;SDS011;16272;48.188;9.964;2023-12-14T07:46:09;14.70;;;5.57;;
29246;SDS011;16272;48.188;9.964;2023-12-14T07:48:35;14.43;;;5.70;;
29246;SDS011;16272;48.188;9.964;2023-12-14T07:51:00;13.60;;;5.10;;
29246;SDS011;16272;48.188;9.964;2023-12-14T07:53:25;15.10;;;5.37;;
29246;SDS011;16272;48.188;9.964;2023-12-14T07:55:51;14.98;;;5.75;;
29246;SDS011;16272;48.188;9.964;2023-12-14T07:58:16;16.03;;;5.40;;
29246;SDS011;16272;48.188;9.964;2023-12-14T08:00:42;14.27;;;5.30;;
29246;SDS011;16272;48.188;9.964;2023-12-14T08:03:07;15.00;;;5.23;;
29246;SDS011;16272;48.188;9.964;2023-12-14T08:05:32;13.67;;;5.20;;
29246;SDS011;16272;48.188;9.964;2023-12-14T08:07:57;15.53;;;5.53;;
29246;SDS011;16272;48.188;9.964;2023-12-14T08:10:23;13.10;;;4.93;;
29246;SDS011;16272;48.188;9.964;2023-12-14T08:12:48;14.00;;;4.80;;
29246;SDS011;16272;48.188;9.964;2023-12-14T08:15:13;13.95;;;5.40;;
29246;SDS011;16272;48.188;9.964;2023-12-14T08:17:39;13.87;;;5.20;;
29246;SDS011;16272;48.188;9.964;2023-12-14T08:20:04;13.33;;;4.80;;
29246;SDS011;16272;48.188;9.964;2023-12-14T08:22:33;14.43;;;5.30;;
29246;SDS011;16272;48.188;9.964;2023-12-14T08:24:59;12.68;;;5.15;;
29246;SDS011;16272;48.188;9.964;2023-12-14T08:27:24;13.03;;;5.30;;
29246;SDS011;16272;48.188;9.964;2023-12-14T08:29:49;13.70;;;4.90;;
29246;SDS011;16272;48.188;9.964;2023-12-14T08:32:15;15.63;;;5.33;;
29246;SDS011;16272;48.188;9.964;2023-12-14T08:34:40;13.57;;;5.23;;
29246;SDS011;16272;48.188;9.964;2023-12-14T08:37:05;12.80;;;5.30;;
29246;SDS011;16272;48.188;9.964;2023-12-14T08:39:31;15.97;;;5.70;;
29246;SDS011;16272;48.188;9.964;2023-12-14T08:41:56;15.73;;;5.70;;
29246;SDS011;16272;48.188;9.964;2023-12-14T08:44:21;17.57;;;5.80;;
29246;SDS011;16272;48.188;9.964;2023-12-14T08:46:47;14.85;;;6.00;;
29246;SDS011;16272;48.188;9.964;2023-12-14T08:49:12;16.13;;;6.17;;
29246;SDS011;16272;48.188;9.964;2023-12-14T08:51:38;14.88;;;5.47;;
29246;SDS011;16272;48.188;9.964;2023-12-14T08:54:04;16.20;;;5.97;;
29246;SDS011;16272;48.188;9.964;2023-12-14T08:56:30;14.63;;;5.60;;
29246;SDS011;16272;48.188;9.964;2023-12-14T08:58:56;14.63;;;5.57;;
29246;SDS011;16272;48.188;9.964;2023-12-14T09:01:22;16.00;;;5.50;;
29246;SDS011;16272;48.188;9.964;2023-12-14T09:03:48;15.97;;;6.33;;
29246;SDS011;16272;48.188;9.964;2023-12-14T09:06:14;14.52;;;5.28;;
29246;SDS011;16272;48.188;9.964;2023-12-14T09:08:41;15.13;;;5.13;;
29246;SDS011;16272;48.188;9.964;2023-12-14T09:11:06;15.83;;;5.57;;
29246;SDS011;16272;48.188;9.964;2023-12-14T09:13:31;13.17;;;5.20;;
29246;SDS011;16272;48.188;9.964;2023-12-14T09:15:57;15.40;;;5.10;;
29246;SDS011;16272;48.188;9.964;2023-12-14T09:18:22;14.53;;;4.80;;
29246;SDS011;16272;48.188;9.964;2023-12-14T09:20:48;13.40;;;5.07;;
29246;SDS011;16272;48.188;9.964;2023-12-14T09:23:16;12.85;;;5.13;;
29246;SDS011;16272;48.188;9.964;2023-12-14T09:25:43;14.03;;;5.30;;
29246;SDS011;16272;48.188;9.964;2023-12-14T09:28:09;13.00;;;5.03;;
29246;SDS011;16272;48.188;9.964;2023-12-14T09:30:34;12.80;;;5.03;;
29246;SDS011;16272;48.188;9.964;2023-12-14T09:32:59;12.80;;;4.70;;
29246;SDS011;16272;48.188;9.964;2023-12-14T09:35:25;12.53;;;4.67;;
29246;SDS011;16272;48.188;9.964;2023-12-14T09:37:50;11.67;;;4.50;;
29246;SDS011;16272;48.188;9.964;2023-12-14T09:40:17;11.80;;;4.63;;
29246;SDS011;16272;48.188;9.964;2023-12-14T09:42:43;11.55;;;4.63;;
29246;SDS011;16272;48.188;9.964;2023-12-14T09:45:09;12.35;;;4.85;;
29246;SDS011;16272;48.188;9.964;2023-12-14T09:47:35;13.13;;;5.10;;
29246;SDS011;16272;48.188;9.964;2023-12-14T09:50:02;13.98;;;5.53;;
29246;SDS011;16272;48.188;9.964;2023-12-14T09:52:28;23.60;;;11.52;;
29246;SDS011;16272;48.188;9.964;2023-12-14T09:54:54;21.87;;;10.00;;
29246;SDS011;16272;48.188;9.964;2023-12-14T09:57:19;17.63;;;7.73;;
29246;SDS011;16272;48.188;9.964;2023-12-14T09:59:54;14.32;;;5.90;;
29246;SDS011;16272;48.188;9.964;2023-12-14T10:02:24;13.77;;;5.85;;
29246;SDS011;16272;48.188;9.964;2023-12-14T10:04:51;13.15;;;5.40;;
29246;SDS011;16272;48.188;9.964;2023-12-14T10:07:17;12.90;;;5.17;;
29246;SDS011;16272;48.188;9.964;2023-12-14T10:09:43;13.55;;;5.32;;
29246;SDS011;16272;48.188;9.964;2023-12-14T10:12:08;13.17;;;5.33;;
29246;SDS011;16272;48.188;9.964;2023-12-14T10:14:34;13.05;;;5.50;;
29246;SDS011;16272;48.188;9.964;2023-12-14T10:17:14;12.85;;;5.22;;
29246;SDS011;16272;48.188;9.964;2023-12-14T10:19:42;11.60;;;5.10;;
29246;SDS011;16272;48.188;9.964;2023-12-14T10:22:08;12.25;;;5.00;;
29246;SDS011;16272;48.188;9.964;2023-12-14T10:24:34;12.13;;;4.87;;
29246;SDS011;16272;48.188;9.964;2023-12-14T10:26:59;11.20;;;4.80;;
29246;SDS011;16272;48.188;9.964;2023-12-14T10:29:29;11.45;;;4.57;;
29246;SDS011;16272;48.188;9.964;2023-12-14T10:31:57;9.93;;;4.07;;
29246;SDS011;16272;48.188;9.964;2023-12-14T10:34:24;8.27;;;3.25;;
29246;SDS011;16272;48.188;9.964;2023-12-14T10:36:49;7.83;;;2.70;;
29246;SDS011;16272;48.188;9.964;2023-12-14T10:39:14;8.27;;;2.80;;
29246;SDS011;16272;48.188;9.964;2023-12-14T10:41:42;7.72;;;2.80;;
29246;SDS011;16272;48.188;9.964;2023-12-14T10:44:12;7.25;;;2.30;;
29246;SDS011;16272;48.188;9.964;2023-12-14T10:46:37;6.27;;;2.10;;
29246;SDS011;16272;48.188;9.964;2023-12-14T10:49:03;6.70;;;2.00;;
29246;SDS011;16272;48.188;9.964;2023-12-14T10:51:28;6.47;;;1.97;;
29246;SDS011;16272;48.188;9.964;2023-12-14T10:53:54;6.73;;;2.00;;
29246;SDS011;16272;48.188;9.964;2023-12-14T10:56:22;6.20;;;1.83;;
29246;SDS011;16272;48.188;9.964;2023-12-14T10:58:55;5.57;;;1.60;;
29246;SDS011;16272;48.188;9.964;2023-12-14T11:01:23;5.30;;;1.48;;
29246;SDS011;16272;48.188;9.964;2023-12-14T11:03:49;5.65;;;1.50;;
29246;SDS011;16272;48.188;9.964;2023-12-14T11:08:53;5.88;;;1.50;;
29246;SDS011;16272;48.188;9.964;2023-12-14T11:11:20;5.30;;;1.30;;
29246;SDS011;16272;48.188;9.964;2023-12-14T11:13:53;5.60;;;1.63;;
29246;SDS011;16272;48.188;9.964;2023-12-14T11:16:24;5.80;;;1.80;;
29246;SDS011;16272;48.188;9.964;2023-12-14T11:24:22;6.22;;;1.98;;
29246;SDS011;16272;48.188;9.964;2023-12-14T11:26:51;6.50;;;2.28;;
29246;SDS011;16272;48.188;9.964;2023-12-14T11:29:17;6.07;;;2.00;;
29246;SDS011;16272;48.188;9.964;2023-12-14T11:31:44;6.63;;;2.20;;
29246;SDS011;16272;48.188;9.964;2023-12-14T11:34:09;6.15;;;2.05;;
29246;SDS011;16272;48.188;9.964;2023-12-14T11:36:36;5.80;;;1.70;;
29246;SDS011;16272;48.188;9.964;2023-12-14T11:39:04;5.88;;;1.77;;
29246;SDS011;16272;48.188;9.964;2023-12-14T11:41:30;6.40;;;1.70;;
29246;SDS011;16272;48.188;9.964;2023-12-14T11:43:56;6.03;;;1.88;;
29246;SDS011;16272;48.188;9.964;2023-12-14T11:46:21;6.30;;;1.90;;
29246;SDS011;16272;48.188;9.964;2023-12-14T11:48:47;6.00;;;1.90;;
29246;SDS011;16272;48.188;9.964;2023-12-14T11:51:14;6.10;;;1.90;;
29246;SDS011;16272;48.188;9.964;2023-12-14T11:53:40;6.10;;;1.90;;
29246;SDS011;16272;48.188;9.964;2023-12-14T11:56:12;5.95;;;1.80;;
29246;SDS011;16272;48.188;9.964;2023-12-14T11:58:40;5.60;;;1.70;;
29246;SDS011;16272;48.188;9.964;2023-12-14T12:03:38;5.60;;;1.60;;
29246;SDS011;16272;48.188;9.964;2023-12-14T12:06:03;5.57;;;1.70;;
29246;SDS011;16272;48.188;9.964;2023-12-14T12:08:28;5.47;;;1.60;;
29246;SDS011;16272;48.188;9.964;2023-12-14T12:10:54;5.40;;;1.40;;
29246;SDS011;16272;48.188;9.964;2023-12-14T12:13:19;5.17;;;1.30;;
29246;SDS011;16272;48.188;9.964;2023-12-14T12:15:45;5.30;;;1.30;;
29246;SDS011;16272;48.188;9.964;2023-12-14T12:18:13;5.60;;;1.25;;
29246;SDS011;16272;48.188;9.964;2023-12-14T12:20:39;5.30;;;1.50;;
29246;SDS011;16272;48.188;9.964;2023-12-14T12:23:05;5.50;;;1.30;;
29246;SDS011;16272;48.188;9.964;2023-12-14T12:25:31;5.13;;;1.40;;
29246;SDS011;16272;48.188;9.964;2023-12-14T12:27:57;5.43;;;1.40;;
29246;SDS011;16272;48.188;9.964;2023-12-14T12:30:23;5.22;;;1.40;;
29246;SDS011;16272;48.188;9.964;2023-12-14T12:32:49;5.32;;;1.40;;
29246;SDS011;16272;48.188;9.964;2023-12-14T12:35:16;4.97;;;1.20;;
29246;SDS011;16272;48.188;9.964;2023-12-14T12:37:45;5.25;;;1.35;;
29246;SDS011;16272;48.188;9.964;2023-12-14T12:40:10;5.40;;;1.33;;
29246;SDS011;16272;48.188;9.964;2023-12-14T12:42:36;5.10;;;1.20;;
29246;SDS011;16272;48.188;9.964;2023-12-14T12:45:01;4.97;;;1.13;;
29246;SDS011;16272;48.188;9.964;2023-12-14T12:47:26;4.97;;;1.30;;
29246;SDS011;16272;48.188;9.964;2023-12-14T12:49:52;5.27;;;1.20;;
29246;SDS011;16272;48.188;9.964;2023-12-14T12:52:17;4.73;;;1.10;;
29246;SDS011;16272;48.188;9.964;2023-12-14T12:54:43;4.83;;;1.10;;
29246;SDS011;16272;48.188;9.964;2023-12-14T12:57:08;5.13;;;1.30;;
29246;SDS011;16272;48.188;9.964;2023-12-14T12:59:33;5.07;;;1.40;;
29246;SDS011;16272;48.188;9.964;2023-12-14T13:01:58;4.93;;;1.30;;
29246;SDS011;16272;48.188;9.964;2023-12-14T13:04:24;5.17;;;1.20;;
29246;SDS011;16272;48.188;9.964;2023-12-14T13:06:51;5.85;;;1.80;;
29246;SDS011;16272;48.188;9.964;2023-12-14T13:09:16;4.13;;;0.80;;
29246;SDS011;16272;48.188;9.964;2023-12-14T13:11:44;4.70;;;0.95;;
29246;SDS011;16272;48.188;9.964;2023-12-14T13:14:09;3.92;;;0.85;;
29246;SDS011;16272;48.188;9.964;2023-12-14T13:16:35;4.40;;;0.80;;
29246;SDS011;16272;48.188;9.964;2023-12-14T13:19:01;3.95;;;1.00;;
29246;SDS011;16272;48.188;9.964;2023-12-14T13:21:28;5.20;;;1.00;;
29246;SDS011;16272;48.188;9.964;2023-12-14T13:23:54;4.88;;;0.90;;
29246;SDS011;16272;48.188;9.964;2023-12-14T13:26:21;4.15;;;0.80;;
29246;SDS011;16272;48.188;9.964;2023-12-14T13:28:47;4.77;;;0.90;;
29246;SDS011;16272;48.188;9.964;2023-12-14T13:31:12;4.40;;;0.90;;
29246;SDS011;16272;48.188;9.964;2023-12-14T13:33:37;4.73;;;1.00;;
29246;SDS011;16272;48.188;9.964;2023-12-14T13:36:03;5.00;;;1.20;;
29246;SDS011;16272;48.188;9.964;2023-12-14T13:38:28;5.40;;;1.35;;
29246;SDS011;16272;48.188;9.964;2023-12-14T13:40:53;5.27;;;1.30;;
29246;SDS011;16272;48.188;9.964;2023-12-14T13:43:19;5.03;;;1.17;;
29246;SDS011;16272;48.188;9.964;2023-12-14T13:45:44;5.10;;;1.50;;
29246;SDS011;16272;48.188;9.964;2023-12-14T13:48:09;4.97;;;1.30;;
29246;SDS011;16272;48.188;9.964;2023-12-14T13:50:35;5.37;;;1.60;;
29246;SDS011;16272;48.188;9.964;2023-12-14T13:53:01;5.57;;;1.70;;
29246;SDS011;16272;48.188;9.964;2023-12-14T13:55:27;7.00;;;2.50;;
29246;SDS011;16272;48.188;9.964;2023-12-14T13:57:53;7.70;;;3.47;;
29246;SDS011;16272;48.188;9.964;2023-12-14T14:00:18;4.57;;;1.10;;
29246;SDS011;16272;48.188;9.964;2023-12-14T14:02:44;5.35;;;1.70;;
29246;SDS011;16272;48.188;9.964;2023-12-14T14:05:09;8.00;;;2.10;;
29246;SDS011;16272;48.188;9.964;2023-12-14T14:07:35;7.17;;;2.57;;
29246;SDS011;16272;48.188;9.964;2023-12-14T14:10:00;7.40;;;2.47;;
29246;SDS011;16272;48.188;9.964;2023-12-14T14:12:26;5.07;;;1.30;;
29246;SDS011;16272;48.188;9.964;2023-12-14T14:14:51;5.60;;;0.90;;
29246;SDS011;16272;48.188;9.964;2023-12-14T14:17:16;4.97;;;1.00;;
29246;SDS011;16272;48.188;9.964;2023-12-14T14:19:42;4.43;;;1.10;;
29246;SDS011;16272;48.188;9.964;2023-12-14T14:22:08;4.27;;;0.83;;
29246;SDS011;16272;48.188;9.964;2023-12-14T14:24:33;5.07;;;1.10;;
29246;SDS011;16272;48.188;9.964;2023-12-14T14:26:59;4.00;;;0.95;;
29246;SDS011;16272;48.188;9.964;2023-12-14T14:29:24;5.57;;;1.00;;
29246;SDS011;16272;48.188;9.964;2023-12-14T14:31:49;4.27;;;1.00;;
29246;SDS011;16272;48.188;9.964;2023-12-14T14:34:15;4.67;;;1.10;;
29246;SDS011;16272;48.188;9.964;2023-12-14T14:36:41;4.95;;;0.90;;
29246;SDS011;16272;48.188;9.964;2023-12-14T14:39:06;4.67;;;0.90;;
29246;SDS011;16272;48.188;9.964;2023-12-14T14:41:33;5.68;;;1.10;;